Cheektowaga, New York
Current Conditions -  °F | °C
As of 2:54 AM on Thursday 18 Dec 2014 (Local Time) from KBUF Reporting Station
Overcast Overcast  
Wind Chill: 19°   Ceiling: 2600
Heat Index: 30°   Visibility: 10mi
Dew Point: 23°   Wind: 16mph
Humidity: 75%   Direction: 250°WSW
Pressure: 30.03"   Gusts: NA
Location:  42.9°N, 78.74°W
Report Text: KBUF 180754Z 25014KT 10SM OVC026 M01/M05 A3003 RMK AO2 SLP179 T10111050
Loading
Personal Weather Stations






























Interactive Weather Map New forecast layout! Learn more

10-Day Weather Forecast

Advertisements
Track Severe Weather on mobile